Aérodrome :







RETROUVEZ-NOUS SUR...

 
LOGIN :

S'inscrire | Disclaimer

   EN    FR    IT 

 









Légende :    VFR   VFR Marginal   IFR   IFR Intensif   IFR Très Intensif
Visi : 
Plafond : 
>= 8 km
>= 3000ft
5 à 8 km
1000 à 3000 ft
1500m à 5 km
500 à 1000 ft
800 à 1500m
200 à 500 ft
< 800m
< 200 ft
Symboles :   Orages  Brouillard  Fortes neiges  Fortes précipitations  Vent > 20 kt






- Altitude de l'aérodrome : 288 ft


KLEW - Auburn Lewiston Municipal

DERNIER METAR :
  • 120456Z AUTO 01009KT 5SM UP BR OVC007 M02/M03 A3000 RMK AO2 CIG 006V010 SLP170 P0000 T10171028 FZRANO

METARs EXPIRÉS :
  • 120356Z AUTO 03012KT 6SM UP BR OVC007 M02/M03 A3004 RMK AO2 SLP183 P0001 T10171028 400441017 FZRANO
  • 120256Z AUTO 01010KT 7SM UP OVC007 M02/M03 A3009 RMK AO2 CIG 006V012 SLP198 P0000 60003 T10171028 58017 FZRANO

TAF N/A



MET'MAP, la Météo Aéronautique d'un coup d'oeil ! - Copyright ORBIFLY Décembre 2007 - Disclaimer

ORBIFLY MET'MAP TEAM :

Programmation & Développement : Alexandra Zaïnal
Conception & Développement : Baudouin d'Aumeries
Co-Programmation & Développement : Marc-Olivier Méhu
Soutien technique & logistique : Manuel Goepfert

Contact : metmap@orbifly.com




SOURCES & CREDITS :

   NOAA